sensor_id;sensor_type;location;lat;lon;timestamp;P1;durP1;ratioP1;P2;durP2;ratioP2
27666;SDS011;15074;50.940;5.282;2023-11-21T00:00:19;44.42;;;18.00;;
27666;SDS011;15074;50.940;5.282;2023-11-21T00:02:45;52.13;;;18.73;;
27666;SDS011;15074;50.940;5.282;2023-11-21T00:05:11;39.88;;;17.20;;
27666;SDS011;15074;50.940;5.282;2023-11-21T00:07:41;43.22;;;17.33;;
27666;SDS011;15074;50.940;5.282;2023-11-21T00:10:08;49.83;;;17.40;;
27666;SDS011;15074;50.940;5.282;2023-11-21T00:12:36;51.08;;;18.90;;
27666;SDS011;15074;50.940;5.282;2023-11-21T00:15:02;44.88;;;17.67;;
27666;SDS011;15074;50.940;5.282;2023-11-21T00:17:30;37.80;;;16.17;;
27666;SDS011;15074;50.940;5.282;2023-11-21T00:19:55;35.22;;;17.23;;
27666;SDS011;15074;50.940;5.282;2023-11-21T00:22:21;52.00;;;17.55;;
27666;SDS011;15074;50.940;5.282;2023-11-21T00:24:47;51.50;;;17.05;;
27666;SDS011;15074;50.940;5.282;2023-11-21T00:27:13;32.92;;;14.55;;
27666;SDS011;15074;50.940;5.282;2023-11-21T00:29:39;42.08;;;17.33;;
27666;SDS011;15074;50.940;5.282;2023-11-21T00:32:05;37.15;;;17.33;;
27666;SDS011;15074;50.940;5.282;2023-11-21T00:34:31;43.90;;;18.40;;
27666;SDS011;15074;50.940;5.282;2023-11-21T00:36:57;34.22;;;17.13;;
27666;SDS011;15074;50.940;5.282;2023-11-21T00:39:23;39.08;;;17.50;;
27666;SDS011;15074;50.940;5.282;2023-11-21T00:41:49;40.85;;;18.05;;
27666;SDS011;15074;50.940;5.282;2023-11-21T00:44:16;41.15;;;18.65;;
27666;SDS011;15074;50.940;5.282;2023-11-21T00:46:41;35.60;;;18.35;;
27666;SDS011;15074;50.940;5.282;2023-11-21T00:49:07;44.45;;;18.02;;
27666;SDS011;15074;50.940;5.282;2023-11-21T00:51:33;40.88;;;17.73;;
27666;SDS011;15074;50.940;5.282;2023-11-21T00:53:59;50.28;;;19.10;;
27666;SDS011;15074;50.940;5.282;2023-11-21T00:56:25;48.20;;;19.90;;
27666;SDS011;15074;50.940;5.282;2023-11-21T00:58:50;48.88;;;19.40;;
27666;SDS011;15074;50.940;5.282;2023-11-21T01:01:17;48.28;;;19.98;;
27666;SDS011;15074;50.940;5.282;2023-11-21T01:03:44;44.60;;;18.50;;
27666;SDS011;15074;50.940;5.282;2023-11-21T01:06:11;45.30;;;19.92;;
27666;SDS011;15074;50.940;5.282;2023-11-21T01:08:37;32.67;;;16.90;;
27666;SDS011;15074;50.940;5.282;2023-11-21T01:11:02;42.38;;;19.25;;
27666;SDS011;15074;50.940;5.282;2023-11-21T01:13:29;43.25;;;19.00;;
27666;SDS011;15074;50.940;5.282;2023-11-21T01:15:55;41.90;;;19.23;;
27666;SDS011;15074;50.940;5.282;2023-11-21T01:18:21;39.15;;;18.48;;
27666;SDS011;15074;50.940;5.282;2023-11-21T01:20:47;47.47;;;20.00;;
27666;SDS011;15074;50.940;5.282;2023-11-21T01:23:13;40.08;;;18.90;;
27666;SDS011;15074;50.940;5.282;2023-11-21T01:25:39;39.40;;;20.08;;
27666;SDS011;15074;50.940;5.282;2023-11-21T01:28:05;34.63;;;17.45;;
27666;SDS011;15074;50.940;5.282;2023-11-21T01:30:31;48.05;;;19.30;;
27666;SDS011;15074;50.940;5.282;2023-11-21T01:32:58;34.95;;;17.70;;
27666;SDS011;15074;50.940;5.282;2023-11-21T01:35:24;34.67;;;19.95;;
27666;SDS011;15074;50.940;5.282;2023-11-21T01:37:50;45.22;;;20.17;;
27666;SDS011;15074;50.940;5.282;2023-11-21T01:40:16;43.17;;;20.33;;
27666;SDS011;15074;50.940;5.282;2023-11-21T01:42:42;58.78;;;21.08;;
27666;SDS011;15074;50.940;5.282;2023-11-21T01:45:09;55.20;;;21.88;;
27666;SDS011;15074;50.940;5.282;2023-11-21T01:47:35;59.45;;;23.20;;
27666;SDS011;15074;50.940;5.282;2023-11-21T01:50:03;52.30;;;22.63;;
27666;SDS011;15074;50.940;5.282;2023-11-21T01:52:31;61.85;;;22.17;;
27666;SDS011;15074;50.940;5.282;2023-11-21T01:54:58;65.90;;;22.70;;
27666;SDS011;15074;50.940;5.282;2023-11-21T01:57:25;63.15;;;21.95;;
27666;SDS011;15074;50.940;5.282;2023-11-21T01:59:51;66.28;;;23.55;;
27666;SDS011;15074;50.940;5.282;2023-11-21T02:04:44;66.70;;;23.95;;
27666;SDS011;15074;50.940;5.282;2023-11-21T02:07:10;80.70;;;25.70;;
27666;SDS011;15074;50.940;5.282;2023-11-21T02:09:36;73.15;;;25.98;;
27666;SDS011;15074;50.940;5.282;2023-11-21T02:12:07;71.32;;;25.30;;
27666;SDS011;15074;50.940;5.282;2023-11-21T02:14:35;77.35;;;25.17;;
27666;SDS011;15074;50.940;5.282;2023-11-21T02:17:01;86.00;;;24.25;;
27666;SDS011;15074;50.940;5.282;2023-11-21T02:19:28;74.80;;;24.23;;
27666;SDS011;15074;50.940;5.282;2023-11-21T02:21:56;69.30;;;25.33;;
27666;SDS011;15074;50.940;5.282;2023-11-21T02:24:28;78.60;;;25.75;;
27666;SDS011;15074;50.940;5.282;2023-11-21T02:26:54;77.57;;;26.02;;
27666;SDS011;15074;50.940;5.282;2023-11-21T02:29:20;79.28;;;24.65;;
27666;SDS011;15074;50.940;5.282;2023-11-21T02:31:53;80.45;;;26.67;;
27666;SDS011;15074;50.940;5.282;2023-11-21T02:34:20;80.22;;;23.95;;
27666;SDS011;15074;50.940;5.282;2023-11-21T02:36:46;81.40;;;27.63;;
27666;SDS011;15074;50.940;5.282;2023-11-21T02:41:40;75.80;;;25.80;;
27666;SDS011;15074;50.940;5.282;2023-11-21T02:44:06;89.38;;;26.60;;
27666;SDS011;15074;50.940;5.282;2023-11-21T02:46:32;94.70;;;28.33;;
27666;SDS011;15074;50.940;5.282;2023-11-21T02:48:59;86.45;;;27.98;;
27666;SDS011;15074;50.940;5.282;2023-11-21T02:51:26;93.25;;;27.88;;
27666;SDS011;15074;50.940;5.282;2023-11-21T02:53:51;81.65;;;27.98;;
27666;SDS011;15074;50.940;5.282;2023-11-21T02:56:17;84.43;;;28.40;;
27666;SDS011;15074;50.940;5.282;2023-11-21T02:58:43;103.10;;;31.08;;
27666;SDS011;15074;50.940;5.282;2023-11-21T03:01:09;97.30;;;32.28;;
27666;SDS011;15074;50.940;5.282;2023-11-21T03:03:36;105.32;;;30.10;;
27666;SDS011;15074;50.940;5.282;2023-11-21T03:06:05;105.43;;;33.20;;
27666;SDS011;15074;50.940;5.282;2023-11-21T03:08:31;99.47;;;31.45;;
27666;SDS011;15074;50.940;5.282;2023-11-21T03:10:57;105.38;;;33.83;;
27666;SDS011;15074;50.940;5.282;2023-11-21T03:13:23;106.15;;;33.55;;
27666;SDS011;15074;50.940;5.282;2023-11-21T03:15:49;119.75;;;34.58;;
27666;SDS011;15074;50.940;5.282;2023-11-21T03:18:15;103.68;;;34.00;;
27666;SDS011;15074;50.940;5.282;2023-11-21T03:20:41;125.20;;;34.95;;
27666;SDS011;15074;50.940;5.282;2023-11-21T03:23:11;111.28;;;34.78;;
27666;SDS011;15074;50.940;5.282;2023-11-21T03:25:37;107.93;;;33.47;;
27666;SDS011;15074;50.940;5.282;2023-11-21T03:28:03;127.38;;;37.05;;
27666;SDS011;15074;50.940;5.282;2023-11-21T03:30:28;104.80;;;33.15;;
27666;SDS011;15074;50.940;5.282;2023-11-21T03:32:54;107.88;;;33.65;;
27666;SDS011;15074;50.940;5.282;2023-11-21T03:35:20;101.40;;;32.97;;
27666;SDS011;15074;50.940;5.282;2023-11-21T03:37:46;130.88;;;35.17;;
27666;SDS011;15074;50.940;5.282;2023-11-21T03:40:12;115.75;;;35.40;;
27666;SDS011;15074;50.940;5.282;2023-11-21T03:42:38;116.20;;;33.17;;
27666;SDS011;15074;50.940;5.282;2023-11-21T03:45:05;119.32;;;34.28;;
27666;SDS011;15074;50.940;5.282;2023-11-21T03:47:31;98.32;;;31.45;;
27666;SDS011;15074;50.940;5.282;2023-11-21T03:49:57;110.25;;;32.65;;
27666;SDS011;15074;50.940;5.282;2023-11-21T03:52:22;108.30;;;31.85;;
27666;SDS011;15074;50.940;5.282;2023-11-21T03:54:49;101.50;;;29.67;;
27666;SDS011;15074;50.940;5.282;2023-11-21T03:57:14;128.27;;;32.20;;
27666;SDS011;15074;50.940;5.282;2023-11-21T03:59:40;112.55;;;30.17;;
27666;SDS011;15074;50.940;5.282;2023-11-21T04:02:06;120.57;;;32.50;;
27666;SDS011;15074;50.940;5.282;2023-11-21T04:04:32;314.75;;;42.00;;
27666;SDS011;15074;50.940;5.282;2023-11-21T04:06:58;145.15;;;33.85;;
27666;SDS011;15074;50.940;5.282;2023-11-21T04:09:24;136.88;;;32.45;;
27666;SDS011;15074;50.940;5.282;2023-11-21T04:11:50;162.25;;;33.80;;
27666;SDS011;15074;50.940;5.282;2023-11-21T04:14:17;121.13;;;31.58;;
27666;SDS011;15074;50.940;5.282;2023-11-21T04:16:42;181.43;;;32.83;;
27666;SDS011;15074;50.940;5.282;2023-11-21T04:19:08;105.28;;;29.25;;
27666;SDS011;15074;50.940;5.282;2023-11-21T04:21:40;163.30;;;32.50;;
27666;SDS011;15074;50.940;5.282;2023-11-21T04:24:06;165.05;;;31.95;;
27666;SDS011;15074;50.940;5.282;2023-11-21T04:26:32;127.82;;;30.83;;
27666;SDS011;15074;50.940;5.282;2023-11-21T04:28:58;215.25;;;34.65;;
27666;SDS011;15074;50.940;5.282;2023-11-21T04:31:23;131.07;;;29.15;;
27666;SDS011;15074;50.940;5.282;2023-11-21T04:33:49;243.20;;;33.38;;
27666;SDS011;15074;50.940;5.282;2023-11-21T04:36:15;230.75;;;33.28;;
27666;SDS011;15074;50.940;5.282;2023-11-21T04:38:40;220.63;;;31.00;;
27666;SDS011;15074;50.940;5.282;2023-11-21T04:41:06;277.88;;;35.03;;
27666;SDS011;15074;50.940;5.282;2023-11-21T04:43:32;214.93;;;30.77;;
27666;SDS011;15074;50.940;5.282;2023-11-21T04:45:58;155.90;;;29.48;;
27666;SDS011;15074;50.940;5.282;2023-11-21T04:48:24;240.75;;;34.30;;
27666;SDS011;15074;50.940;5.282;2023-11-21T04:50:50;158.60;;;29.52;;
27666;SDS011;15074;50.940;5.282;2023-11-21T04:53:16;89.57;;;27.27;;
27666;SDS011;15074;50.940;5.282;2023-11-21T04:55:42;186.98;;;31.90;;
27666;SDS011;15074;50.940;5.282;2023-11-21T04:58:08;244.73;;;34.63;;
27666;SDS011;15074;50.940;5.282;2023-11-21T05:00:35;270.13;;;34.75;;
27666;SDS011;15074;50.940;5.282;2023-11-21T05:03:01;182.90;;;29.75;;
27666;SDS011;15074;50.940;5.282;2023-11-21T05:05:28;277.02;;;35.67;;
27666;SDS011;15074;50.940;5.282;2023-11-21T05:07:57;139.90;;;30.00;;
27666;SDS011;15074;50.940;5.282;2023-11-21T05:10:23;459.33;;;43.60;;
27666;SDS011;15074;50.940;5.282;2023-11-21T05:12:48;347.27;;;40.55;;
27666;SDS011;15074;50.940;5.282;2023-11-21T05:15:15;226.43;;;33.88;;
27666;SDS011;15074;50.940;5.282;2023-11-21T05:17:44;311.67;;;37.90;;
27666;SDS011;15074;50.940;5.282;2023-11-21T05:20:14;361.55;;;39.08;;
27666;SDS011;15074;50.940;5.282;2023-11-21T05:22:43;261.23;;;36.47;;
27666;SDS011;15074;50.940;5.282;2023-11-21T05:25:09;437.45;;;44.58;;
27666;SDS011;15074;50.940;5.282;2023-11-21T05:27:36;407.13;;;42.77;;
27666;SDS011;15074;50.940;5.282;2023-11-21T05:30:02;592.80;;;54.88;;
27666;SDS011;15074;50.940;5.282;2023-11-21T05:32:36;455.23;;;45.83;;
27666;SDS011;15074;50.940;5.282;2023-11-21T05:35:03;581.47;;;51.38;;
27666;SDS011;15074;50.940;5.282;2023-11-21T05:37:34;224.75;;;31.77;;
27666;SDS011;15074;50.940;5.282;2023-11-21T05:40:00;300.17;;;34.55;;
27666;SDS011;15074;50.940;5.282;2023-11-21T05:42:30;427.10;;;43.72;;
27666;SDS011;15074;50.940;5.282;2023-11-21T05:44:57;490.02;;;45.35;;
27666;SDS011;15074;50.940;5.282;2023-11-21T05:47:24;600.27;;;52.70;;
27666;SDS011;15074;50.940;5.282;2023-11-21T05:49:51;408.38;;;42.38;;
27666;SDS011;15074;50.940;5.282;2023-11-21T05:52:17;480.35;;;46.65;;
27666;SDS011;15074;50.940;5.282;2023-11-21T05:54:43;428.20;;;44.45;;
27666;SDS011;15074;50.940;5.282;2023-11-21T05:57:09;204.73;;;36.35;;
27666;SDS011;15074;50.940;5.282;2023-11-21T05:59:34;194.27;;;35.90;;
27666;SDS011;15074;50.940;5.282;2023-11-21T06:02:00;527.05;;;51.65;;
27666;SDS011;15074;50.940;5.282;2023-11-21T06:04:27;683.45;;;62.30;;
27666;SDS011;15074;50.940;5.282;2023-11-21T06:06:52;308.77;;;42.22;;
27666;SDS011;15074;50.940;5.282;2023-11-21T06:09:18;461.92;;;52.33;;
27666;SDS011;15074;50.940;5.282;2023-11-21T06:11:44;415.25;;;46.40;;
27666;SDS011;15074;50.940;5.282;2023-11-21T06:14:10;258.33;;;38.88;;
27666;SDS011;15074;50.940;5.282;2023-11-21T06:16:36;671.85;;;63.83;;
27666;SDS011;15074;50.940;5.282;2023-11-21T06:19:01;673.90;;;60.97;;
27666;SDS011;15074;50.940;5.282;2023-11-21T06:21:27;401.70;;;45.33;;
27666;SDS011;15074;50.940;5.282;2023-11-21T06:23:53;709.08;;;64.10;;
27666;SDS011;15074;50.940;5.282;2023-11-21T06:26:21;377.27;;;44.20;;
27666;SDS011;15074;50.940;5.282;2023-11-21T06:28:47;514.67;;;51.65;;
27666;SDS011;15074;50.940;5.282;2023-11-21T06:33:42;442.27;;;49.33;;
27666;SDS011;15074;50.940;5.282;2023-11-21T06:36:08;216.82;;;32.47;;
27666;SDS011;15074;50.940;5.282;2023-11-21T06:38:36;314.98;;;39.05;;
27666;SDS011;15074;50.940;5.282;2023-11-21T06:41:02;169.45;;;32.85;;
27666;SDS011;15074;50.940;5.282;2023-11-21T06:43:29;186.02;;;33.38;;
27666;SDS011;15074;50.940;5.282;2023-11-21T06:45:56;361.23;;;42.83;;
27666;SDS011;15074;50.940;5.282;2023-11-21T06:48:22;229.70;;;33.47;;
27666;SDS011;15074;50.940;5.282;2023-11-21T06:50:48;356.30;;;42.92;;
27666;SDS011;15074;50.940;5.282;2023-11-21T06:53:14;322.55;;;42.97;;
27666;SDS011;15074;50.940;5.282;2023-11-21T06:55:39;453.98;;;50.63;;
27666;SDS011;15074;50.940;5.282;2023-11-21T06:58:05;256.50;;;39.08;;
27666;SDS011;15074;50.940;5.282;2023-11-21T07:00:31;330.88;;;38.92;;
27666;SDS011;15074;50.940;5.282;2023-11-21T07:02:56;332.55;;;42.50;;
27666;SDS011;15074;50.940;5.282;2023-11-21T07:05:23;396.67;;;46.60;;
27666;SDS011;15074;50.940;5.282;2023-11-21T07:07:49;155.00;;;34.55;;
27666;SDS011;15074;50.940;5.282;2023-11-21T07:10:15;223.05;;;38.88;;
27666;SDS011;15074;50.940;5.282;2023-11-21T07:12:41;199.02;;;36.47;;
27666;SDS011;15074;50.940;5.282;2023-11-21T07:15:07;191.75;;;38.42;;
27666;SDS011;15074;50.940;5.282;2023-11-21T07:17:36;204.18;;;38.22;;
27666;SDS011;15074;50.940;5.282;2023-11-21T07:20:02;249.13;;;41.40;;
27666;SDS011;15074;50.940;5.282;2023-11-21T07:22:28;266.42;;;41.85;;
27666;SDS011;15074;50.940;5.282;2023-11-21T07:24:55;218.25;;;40.60;;
27666;SDS011;15074;50.940;5.282;2023-11-21T07:27:23;284.38;;;44.35;;
27666;SDS011;15074;50.940;5.282;2023-11-21T07:29:49;211.25;;;39.80;;
27666;SDS011;15074;50.940;5.282;2023-11-21T07:32:15;196.18;;;37.58;;
27666;SDS011;15074;50.940;5.282;2023-11-21T07:34:41;216.27;;;40.15;;
27666;SDS011;15074;50.940;5.282;2023-11-21T07:37:07;126.30;;;33.47;;
27666;SDS011;15074;50.940;5.282;2023-11-21T07:39:34;130.10;;;35.42;;
27666;SDS011;15074;50.940;5.282;2023-11-21T07:42:01;110.13;;;32.38;;
27666;SDS011;15074;50.940;5.282;2023-11-21T07:44:27;118.20;;;33.38;;
27666;SDS011;15074;50.940;5.282;2023-11-21T07:46:53;83.00;;;28.75;;
27666;SDS011;15074;50.940;5.282;2023-11-21T07:49:22;96.70;;;29.42;;
27666;SDS011;15074;50.940;5.282;2023-11-21T07:51:48;94.65;;;30.38;;
27666;SDS011;15074;50.940;5.282;2023-11-21T07:54:14;82.15;;;29.15;;
27666;SDS011;15074;50.940;5.282;2023-11-21T07:56:40;96.35;;;29.95;;
27666;SDS011;15074;50.940;5.282;2023-11-21T07:59:06;97.85;;;28.77;;
27666;SDS011;15074;50.940;5.282;2023-11-21T08:01:32;84.68;;;27.55;;
27666;SDS011;15074;50.940;5.282;2023-11-21T08:03:58;86.10;;;30.30;;
27666;SDS011;15074;50.940;5.282;2023-11-21T08:06:26;83.55;;;28.98;;
27666;SDS011;15074;50.940;5.282;2023-11-21T08:08:53;88.80;;;31.65;;
27666;SDS011;15074;50.940;5.282;2023-11-21T08:11:19;87.55;;;27.23;;
27666;SDS011;15074;50.940;5.282;2023-11-21T08:13:44;73.95;;;24.20;;
27666;SDS011;15074;50.940;5.282;2023-11-21T08:16:11;67.30;;;24.80;;
27666;SDS011;15074;50.940;5.282;2023-11-21T08:18:37;72.88;;;26.52;;
27666;SDS011;15074;50.940;5.282;2023-11-21T08:21:03;70.95;;;27.30;;
27666;SDS011;15074;50.940;5.282;2023-11-21T08:23:30;80.38;;;27.02;;
27666;SDS011;15074;50.940;5.282;2023-11-21T08:25:55;82.97;;;27.20;;
27666;SDS011;15074;50.940;5.282;2023-11-21T08:31:27;77.35;;;25.60;;
27666;SDS011;15074;50.940;5.282;2023-11-21T08:33:54;77.20;;;26.73;;
27666;SDS011;15074;50.940;5.282;2023-11-21T08:36:23;80.75;;;26.70;;
27666;SDS011;15074;50.940;5.282;2023-11-21T08:38:51;74.40;;;25.08;;
27666;SDS011;15074;50.940;5.282;2023-11-21T08:41:17;64.88;;;24.63;;
27666;SDS011;15074;50.940;5.282;2023-11-21T08:43:47;71.45;;;24.63;;
27666;SDS011;15074;50.940;5.282;2023-11-21T08:46:14;68.40;;;25.67;;
27666;SDS011;15074;50.940;5.282;2023-11-21T08:48:42;68.53;;;24.57;;
27666;SDS011;15074;50.940;5.282;2023-11-21T08:51:10;70.60;;;23.90;;
27666;SDS011;15074;50.940;5.282;2023-11-21T08:53:39;61.83;;;23.58;;
27666;SDS011;15074;50.940;5.282;2023-11-21T08:56:05;70.45;;;25.10;;
27666;SDS011;15074;50.940;5.282;2023-11-21T08:58:31;62.85;;;24.17;;
27666;SDS011;15074;50.940;5.282;2023-11-21T09:00:57;62.30;;;23.98;;
27666;SDS011;15074;50.940;5.282;2023-11-21T09:03:23;74.63;;;24.65;;
27666;SDS011;15074;50.940;5.282;2023-11-21T09:05:49;56.38;;;22.92;;
27666;SDS011;15074;50.940;5.282;2023-11-21T09:08:15;50.95;;;21.98;;
27666;SDS011;15074;50.940;5.282;2023-11-21T09:10:41;47.53;;;20.83;;
27666;SDS011;15074;50.940;5.282;2023-11-21T09:13:08;51.03;;;20.25;;
27666;SDS011;15074;50.940;5.282;2023-11-21T09:15:35;46.13;;;20.48;;
27666;SDS011;15074;50.940;5.282;2023-11-21T09:18:00;38.35;;;19.73;;
27666;SDS011;15074;50.940;5.282;2023-11-21T09:20:27;47.13;;;18.15;;
27666;SDS011;15074;50.940;5.282;2023-11-21T09:22:53;31.30;;;18.63;;
27666;SDS011;15074;50.940;5.282;2023-11-21T09:25:20;40.80;;;19.02;;
27666;SDS011;15074;50.940;5.282;2023-11-21T09:27:47;34.13;;;18.40;;
27666;SDS011;15074;50.940;5.282;2023-11-21T09:30:13;34.40;;;18.08;;
27666;SDS011;15074;50.940;5.282;2023-11-21T09:32:42;42.80;;;19.08;;
27666;SDS011;15074;50.940;5.282;2023-11-21T09:35:10;45.00;;;19.02;;
27666;SDS011;15074;50.940;5.282;2023-11-21T09:37:36;40.97;;;19.05;;
27666;SDS011;15074;50.940;5.282;2023-11-21T09:40:04;40.05;;;20.05;;
27666;SDS011;15074;50.940;5.282;2023-11-21T09:42:42;34.40;;;19.35;;
27666;SDS011;15074;50.940;5.282;2023-11-21T09:47:56;37.03;;;18.70;;
27666;SDS011;15074;50.940;5.282;2023-11-21T09:50:22;40.08;;;20.27;;
27666;SDS011;15074;50.940;5.282;2023-11-21T09:55:18;46.63;;;20.85;;
27666;SDS011;15074;50.940;5.282;2023-11-21T09:57:47;39.30;;;19.45;;
27666;SDS011;15074;50.940;5.282;2023-11-21T10:00:14;40.45;;;20.55;;
27666;SDS011;15074;50.940;5.282;2023-11-21T10:02:44;40.97;;;19.65;;
27666;SDS011;15074;50.940;5.282;2023-11-21T10:05:09;39.50;;;19.02;;
27666;SDS011;15074;50.940;5.282;2023-11-21T10:07:37;38.10;;;19.25;;
27666;SDS011;15074;50.940;5.282;2023-11-21T10:10:06;39.58;;;19.10;;
27666;SDS011;15074;50.940;5.282;2023-11-21T10:12:34;40.33;;;19.90;;
27666;SDS011;15074;50.940;5.282;2023-11-21T10:15:00;45.78;;;19.42;;
27666;SDS011;15074;50.940;5.282;2023-11-21T10:17:31;50.75;;;20.10;;
27666;SDS011;15074;50.940;5.282;2023-11-21T10:20:04;37.75;;;19.50;;
27666;SDS011;15074;50.940;5.282;2023-11-21T10:22:36;60.13;;;21.55;;
27666;SDS011;15074;50.940;5.282;2023-11-21T10:25:07;49.95;;;21.17;;
27666;SDS011;15074;50.940;5.282;2023-11-21T10:27:37;47.90;;;21.42;;
27666;SDS011;15074;50.940;5.282;2023-11-21T10:30:06;47.03;;;20.33;;
27666;SDS011;15074;50.940;5.282;2023-11-21T10:32:38;42.85;;;20.48;;
27666;SDS011;15074;50.940;5.282;2023-11-21T10:35:05;50.42;;;21.20;;
27666;SDS011;15074;50.940;5.282;2023-11-21T10:37:38;47.53;;;20.40;;
27666;SDS011;15074;50.940;5.282;2023-11-21T10:40:07;39.95;;;19.67;;
27666;SDS011;15074;50.940;5.282;2023-11-21T10:42:37;43.78;;;21.17;;
27666;SDS011;15074;50.940;5.282;2023-11-21T10:45:07;46.67;;;21.02;;
27666;SDS011;15074;50.940;5.282;2023-11-21T10:47:43;47.05;;;20.80;;
27666;SDS011;15074;50.940;5.282;2023-11-21T10:50:09;48.00;;;20.75;;
27666;SDS011;15074;50.940;5.282;2023-11-21T10:52:39;40.78;;;20.33;;
27666;SDS011;15074;50.940;5.282;2023-11-21T10:55:20;52.00;;;19.85;;
27666;SDS011;15074;50.940;5.282;2023-11-21T11:00:13;35.45;;;19.45;;
27666;SDS011;15074;50.940;5.282;2023-11-21T11:02:41;44.13;;;20.40;;
27666;SDS011;15074;50.940;5.282;2023-11-21T11:05:08;43.25;;;19.98;;
27666;SDS011;15074;50.940;5.282;2023-11-21T11:07:36;38.80;;;19.05;;
27666;SDS011;15074;50.940;5.282;2023-11-21T11:10:08;48.10;;;20.27;;
27666;SDS011;15074;50.940;5.282;2023-11-21T11:12:39;43.45;;;19.73;;
27666;SDS011;15074;50.940;5.282;2023-11-21T11:15:05;39.30;;;20.13;;
27666;SDS011;15074;50.940;5.282;2023-11-21T11:17:34;44.17;;;20.10;;
27666;SDS011;15074;50.940;5.282;2023-11-21T11:20:03;40.85;;;19.45;;
27666;SDS011;15074;50.940;5.282;2023-11-21T11:22:41;50.72;;;19.67;;
27666;SDS011;15074;50.940;5.282;2023-11-21T11:28:31;47.97;;;20.27;;
27666;SDS011;15074;50.940;5.282;2023-11-21T11:34:08;47.53;;;20.58;;
27666;SDS011;15074;50.940;5.282;2023-11-21T11:36:47;49.78;;;21.52;;
27666;SDS011;15074;50.940;5.282;2023-11-21T11:39:27;53.42;;;22.05;;
27666;SDS011;15074;50.940;5.282;2023-11-21T11:41:57;41.95;;;20.63;;
27666;SDS011;15074;50.940;5.282;2023-11-21T11:47:29;48.17;;;22.30;;
27666;SDS011;15074;50.940;5.282;2023-11-21T11:52:47;43.20;;;20.95;;
27666;SDS011;15074;50.940;5.282;2023-11-21T11:55:16;43.35;;;20.88;;
27666;SDS011;15074;50.940;5.282;2023-11-21T11:57:43;37.92;;;19.58;;
27666;SDS011;15074;50.940;5.282;2023-11-21T12:02:49;41.60;;;20.70;;
27666;SDS011;15074;50.940;5.282;2023-11-21T12:05:17;47.22;;;21.00;;
27666;SDS011;15074;50.940;5.282;2023-11-21T12:10:23;46.65;;;21.40;;
27666;SDS011;15074;50.940;5.282;2023-11-21T12:12:50;42.92;;;21.63;;
27666;SDS011;15074;50.940;5.282;2023-11-21T12:15:21;44.47;;;21.85;;
27666;SDS011;15074;50.940;5.282;2023-11-21T12:17:48;42.42;;;19.77;;
27666;SDS011;15074;50.940;5.282;2023-11-21T12:20:14;41.58;;;19.77;;
27666;SDS011;15074;50.940;5.282;2023-11-21T12:22:43;40.15;;;20.05;;
27666;SDS011;15074;50.940;5.282;2023-11-21T12:25:23;36.75;;;18.50;;
27666;SDS011;15074;50.940;5.282;2023-11-21T12:27:53;30.77;;;18.30;;
27666;SDS011;15074;50.940;5.282;2023-11-21T12:30:20;39.58;;;21.08;;
27666;SDS011;15074;50.940;5.282;2023-11-21T12:32:52;35.80;;;19.67;;
27666;SDS011;15074;50.940;5.282;2023-11-21T12:35:23;39.55;;;19.17;;
27666;SDS011;15074;50.940;5.282;2023-11-21T12:37:49;42.10;;;19.52;;
27666;SDS011;15074;50.940;5.282;2023-11-21T12:40:17;40.10;;;20.85;;
27666;SDS011;15074;50.940;5.282;2023-11-21T12:42:46;46.72;;;20.48;;
27666;SDS011;15074;50.940;5.282;2023-11-21T12:47:55;42.67;;;20.98;;
27666;SDS011;15074;50.940;5.282;2023-11-21T12:50:29;50.35;;;21.58;;
27666;SDS011;15074;50.940;5.282;2023-11-21T12:55:33;45.38;;;20.70;;
27666;SDS011;15074;50.940;5.282;2023-11-21T12:58:03;35.60;;;20.27;;
27666;SDS011;15074;50.940;5.282;2023-11-21T13:03:05;40.28;;;20.25;;
27666;SDS011;15074;50.940;5.282;2023-11-21T13:05:36;35.28;;;20.58;;
27666;SDS011;15074;50.940;5.282;2023-11-21T13:08:07;28.95;;;19.80;;
27666;SDS011;15074;50.940;5.282;2023-11-21T13:10:35;35.67;;;21.00;;
27666;SDS011;15074;50.940;5.282;2023-11-21T13:13:05;35.58;;;19.90;;
27666;SDS011;15074;50.940;5.282;2023-11-21T13:15:33;41.90;;;20.38;;
27666;SDS011;15074;50.940;5.282;2023-11-21T13:18:01;42.22;;;21.05;;
27666;SDS011;15074;50.940;5.282;2023-11-21T13:20:27;44.85;;;21.02;;
27666;SDS011;15074;50.940;5.282;2023-11-21T13:22:55;42.03;;;21.77;;
27666;SDS011;15074;50.940;5.282;2023-11-21T13:25:26;44.72;;;22.35;;
27666;SDS011;15074;50.940;5.282;2023-11-21T13:27:53;42.53;;;22.30;;
27666;SDS011;15074;50.940;5.282;2023-11-21T13:30:19;47.88;;;22.75;;
27666;SDS011;15074;50.940;5.282;2023-11-21T13:32:51;46.97;;;23.48;;
27666;SDS011;15074;50.940;5.282;2023-11-21T13:35:18;43.97;;;22.60;;
27666;SDS011;15074;50.940;5.282;2023-11-21T13:37:55;43.42;;;21.77;;
27666;SDS011;15074;50.940;5.282;2023-11-21T13:40:24;37.60;;;21.73;;
27666;SDS011;15074;50.940;5.282;2023-11-21T13:42:53;43.00;;;22.40;;
27666;SDS011;15074;50.940;5.282;2023-11-21T13:45:23;43.58;;;21.90;;
27666;SDS011;15074;50.940;5.282;2023-11-21T13:47:50;51.83;;;22.75;;
27666;SDS011;15074;50.940;5.282;2023-11-21T13:50:18;45.17;;;21.33;;
27666;SDS011;15074;50.940;5.282;2023-11-21T13:52:48;50.35;;;21.15;;
27666;SDS011;15074;50.940;5.282;2023-11-21T13:57:42;36.22;;;20.95;;
27666;SDS011;15074;50.940;5.282;2023-11-21T14:00:10;37.42;;;20.38;;
27666;SDS011;15074;50.940;5.282;2023-11-21T14:02:56;37.13;;;19.77;;
27666;SDS011;15074;50.940;5.282;2023-11-21T14:05:25;33.55;;;20.15;;
27666;SDS011;15074;50.940;5.282;2023-11-21T14:07:54;31.92;;;19.10;;
27666;SDS011;15074;50.940;5.282;2023-11-21T14:10:21;38.72;;;20.13;;
27666;SDS011;15074;50.940;5.282;2023-11-21T14:15:15;36.05;;;19.50;;
27666;SDS011;15074;50.940;5.282;2023-11-21T14:17:44;31.80;;;19.08;;
27666;SDS011;15074;50.940;5.282;2023-11-21T14:20:10;29.17;;;17.75;;
27666;SDS011;15074;50.940;5.282;2023-11-21T14:22:45;34.42;;;18.02;;
27666;SDS011;15074;50.940;5.282;2023-11-21T14:25:11;26.52;;;17.92;;
27666;SDS011;15074;50.940;5.282;2023-11-21T14:27:39;25.17;;;17.15;;
27666;SDS011;15074;50.940;5.282;2023-11-21T14:30:05;23.23;;;16.05;;
27666;SDS011;15074;50.940;5.282;2023-11-21T14:32:31;28.20;;;17.08;;
27666;SDS011;15074;50.940;5.282;2023-11-21T14:34:57;22.80;;;15.93;;
27666;SDS011;15074;50.940;5.282;2023-11-21T14:37:22;19.77;;;15.07;;
27666;SDS011;15074;50.940;5.282;2023-11-21T14:39:49;25.17;;;14.85;;
27666;SDS011;15074;50.940;5.282;2023-11-21T14:42:15;21.90;;;14.13;;
27666;SDS011;15074;50.940;5.282;2023-11-21T14:44:41;18.85;;;13.15;;
27666;SDS011;15074;50.940;5.282;2023-11-21T14:47:07;14.98;;;12.63;;
27666;SDS011;15074;50.940;5.282;2023-11-21T14:49:41;20.67;;;13.57;;
27666;SDS011;15074;50.940;5.282;2023-11-21T14:52:18;18.67;;;13.88;;
27666;SDS011;15074;50.940;5.282;2023-11-21T14:54:59;24.67;;;13.75;;
27666;SDS011;15074;50.940;5.282;2023-11-21T14:57:46;15.05;;;12.27;;
27666;SDS011;15074;50.940;5.282;2023-11-21T15:00:18;19.20;;;13.30;;
27666;SDS011;15074;50.940;5.282;2023-11-21T15:03:07;15.25;;;12.65;;
27666;SDS011;15074;50.940;5.282;2023-11-21T15:05:34;18.58;;;13.48;;
27666;SDS011;15074;50.940;5.282;2023-11-21T15:08:00;18.60;;;13.77;;